Perseverance — WDD5594 — position and weather

sailwx.info

Track history (hours):
 
Tides and Currents Weather Stations Pressure Air Temp Water Temp Dewpoint Dewpoint Depression Visibility Wind Speed Wind Dir Waves Ship Positions

Perseverance

Owner: Cooper, Mark E, Toledo, OR. More information available from US FCC via Universal Licensing System and Coast Guard Vessel Documentation Center.

Last reported at 2016-Nov-10 18:23 UTC. Time now 2016-Dec-09 13:40 UTC.
Position N 44°27' W 124°08'.
Warning: this ship's position is 28 days out of date.

Type: Fishing. MMSI: 367618000.

Date/timePositionNaut miles runAvg speedWind from/ knotsBaromVisibWave heightAir tempDewpointWater temp
2016-Nov-10 18:23N 44°27' W 124°08'  
2016-Nov-06 17:31N 45°15' W 124°08'16 8.3
2016-Nov-06 15:33N 45°32' W 124°07'17 8.3
2016-Nov-06 13:33N 45°48' W 124°06'8 7.8
2016-Nov-06 12:34N 45°56' W 124°06'8 7.6
2016-Nov-06 11:34N 46°04' W 124°07'7 7.0
2016-Nov-06 10:34N 46°11' W 124°07'9 4.5
2016-Nov-06 08:33N 46°11' W 123°54'1 1.2
2016-Nov-06 07:34N 46°11' W 123°52'0 0.0
2016-Nov-05 23:34N 46°11' W 123°52'0 0.0
2016-Nov-05 21:34N 46°11' W 123°52'0 0.0
2016-Nov-05 20:43N 46°11' W 123°52'0 0.0
2016-Nov-05 20:34N 46°11' W 123°52'0 0.0
2016-Nov-05 16:33N 46°11' W 123°52'0 0.0
2016-Nov-05 12:33N 46°11' W 123°52'0 0.0
2016-Nov-05 11:33N 46°11' W 123°52'0 0.0
2016-Nov-05 10:33N 46°11' W 123°52'0 0.0
2016-Nov-05 09:33N 46°11' W 123°52'0 0.0
2016-Nov-05 08:34N 46°11' W 123°52'0 0.0
2016-Nov-05 07:33N 46°11' W 123°52'0 0.0
2016-Nov-05 04:33N 46°11' W 123°52'0 0.0
2016-Nov-05 02:33N 46°11' W 123°52'0 0.0
2016-Nov-05 01:33N 46°11' W 123°52'0 0.0
2016-Nov-04 23:34N 46°11' W 123°52'0 0.0
2016-Nov-04 22:33N 46°11' W 123°52'0 0.0
2016-Nov-04 21:33N 46°11' W 123°52'0 0.0
2016-Nov-04 20:34N 46°11' W 123°52'0 0.0
2016-Nov-04 18:33N 46°11' W 123°52'0 0.0
2016-Nov-04 16:33N 46°11' W 123°52'0 0.0
2016-Nov-04 14:33N 46°11' W 123°52'0 0.0
2016-Nov-04 12:33N 46°11' W 123°52'0 0.0
2016-Nov-04 08:33N 46°11' W 123°52'0 0.0
2016-Nov-04 07:33N 46°11' W 123°52'0 0.0
2016-Nov-04 06:33N 46°11' W 123°52'  
2016-Nov-01 23:33N 46°11' W 123°52'0 0.0
2016-Nov-01 20:33N 46°11' W 123°52'0 0.0
2016-Nov-01 19:34N 46°11' W 123°52'  
Track history (hours):
 
Tides and Currents Weather Stations Pressure Air Temp Water Temp Dewpoint Dewpoint Depression Visibility Wind Speed Wind Dir Waves Ship Positions

Perseverance

Owner: Cooper, Mark E, Toledo, OR. More information available from US FCC via Universal Licensing System and Coast Guard Vessel Documentation Center.

Last reported at 2016-Nov-10 18:23 UTC. Time now 2016-Dec-09 13:40 UTC.
Position N 44°27' W 124°08'.
Warning: this ship's position is 28 days out of date.

Type: Fishing. MMSI: 367618000.

Date/timePositionNaut miles runAvg speedWind from/ knotsBaromVisibWave heightAir tempDewpointWater temp
2016-Nov-10 18:23N 44°27' W 124°08'  
2016-Nov-06 17:31N 45°15' W 124°08'16 8.3
2016-Nov-06 15:33N 45°32' W 124°07'17 8.3
2016-Nov-06 13:33N 45°48' W 124°06'8 7.8
2016-Nov-06 12:34N 45°56' W 124°06'8 7.6
2016-Nov-06 11:34N 46°04' W 124°07'7 7.0
2016-Nov-06 10:34N 46°11' W 124°07'9 4.5
2016-Nov-06 08:33N 46°11' W 123°54'1 1.2
2016-Nov-06 07:34N 46°11' W 123°52'0 0.0
2016-Nov-05 23:34N 46°11' W 123°52'0 0.0
2016-Nov-05 21:34N 46°11' W 123°52'0 0.0
2016-Nov-05 20:43N 46°11' W 123°52'0 0.0
2016-Nov-05 20:34N 46°11' W 123°52'0 0.0
2016-Nov-05 16:33N 46°11' W 123°52'0 0.0
2016-Nov-05 12:33N 46°11' W 123°52'0 0.0
2016-Nov-05 11:33N 46°11' W 123°52'0 0.0
2016-Nov-05 10:33N 46°11' W 123°52'0 0.0
2016-Nov-05 09:33N 46°11' W 123°52'0 0.0
2016-Nov-05 08:34N 46°11' W 123°52'0 0.0
2016-Nov-05 07:33N 46°11' W 123°52'0 0.0
2016-Nov-05 04:33N 46°11' W 123°52'0 0.0
2016-Nov-05 02:33N 46°11' W 123°52'0 0.0
2016-Nov-05 01:33N 46°11' W 123°52'0 0.0
2016-Nov-04 23:34N 46°11' W 123°52'0 0.0
2016-Nov-04 22:33N 46°11' W 123°52'0 0.0
2016-Nov-04 21:33N 46°11' W 123°52'0 0.0
2016-Nov-04 20:34N 46°11' W 123°52'0 0.0
2016-Nov-04 18:33N 46°11' W 123°52'0 0.0
2016-Nov-04 16:33N 46°11' W 123°52'0 0.0
2016-Nov-04 14:33N 46°11' W 123°52'0 0.0
2016-Nov-04 12:33N 46°11' W 123°52'0 0.0
2016-Nov-04 08:33N 46°11' W 123°52'0 0.0
2016-Nov-04 07:33N 46°11' W 123°52'0 0.0
2016-Nov-04 06:33N 46°11' W 123°52'  
2016-Nov-01 23:33N 46°11' W 123°52'0 0.0
2016-Nov-01 20:33N 46°11' W 123°52'0 0.0
2016-Nov-01 19:34N 46°11' W 123°52'  

Dump ship's entire track history